Ivan Papanin — UCJE — position and weather

sailwx.info

Track history (hours):
 
Tides and Currents Weather Stations Pressure Air Temp Water Temp Dewpoint Dewpoint Depression Visibility Wind Speed Wind Dir Waves Ship Positions

Ivan Papanin

Last reported at 2016-Jul-01 22:34 UTC. Time now 2016-Jul-01 22:38 UTC.
Position N 54°46' E 012°49'.

Length 166 m; beam 22 m.

Type: Cargo ship. MMSI: 273137200.

Date/timePositionNaut miles runAvg speedWind from/ knotsBaromVisibWave heightAir tempDewpointWater temp
2016-Jul-01 22:34N 54°46' E 012°49'1313.4
2016-Jul-01 21:33N 54°38' E 012°29'1313.3
2016-Jul-01 20:33N 54°28' E 012°14'1312.8
2016-Jul-01 19:33N 54°25' E 011°53'1313.2
2016-Jul-01 18:33N 54°29' E 011°32'1313.3
2016-Jul-01 17:33N 54°35' E 011°11'1313.3
2016-Jul-01 16:33N 54°42' E 010°52'1212.1
2016-Jul-01 15:33N 54°54' E 010°53'1211.5
2016-Jul-01 14:33N 55°05' E 011°02'1111.3
2016-Jul-01 13:33N 55°16' E 011°04'12011.6
2016-Jul-01 03:14N 57°15' E 011°33'1014.0
2016-Jul-01 02:33N 57°23' E 011°26'1414.0
2016-Jul-01 01:34N 57°34' E 011°10'1413.7
2016-Jul-01 00:33N 57°40' E 010°47'3 1.4
2016-Jun-30 22:30N 57°41' E 010°42'0 0.0
2016-Jun-30 19:29N 57°41' E 010°42'9 2.8
2016-Jun-30 16:14N 57°32' E 010°42'0 0.0
2016-Jun-30 15:16N 57°32' E 010°42'0 0.0
2016-Jun-30 14:33N 57°32' E 010°42'0 0.0
2016-Jun-30 13:31N 57°32' E 010°42'0 0.0
2016-Jun-30 12:33N 57°32' E 010°42'3 2.5
2016-Jun-30 11:31N 57°32' E 010°47'5 4.7
2016-Jun-30 10:33N 57°33' E 010°55'5 5.4
2016-Jun-30 09:33N 57°37' E 011°03'2 2.2
2016-Jun-30 08:33N 57°35' E 011°02'2 2.4
2016-Jun-30 07:33N 57°32' E 011°00'7 6.7
2016-Jun-30 06:33N 57°39' E 011°01'1211.7
2016-Jun-30 05:33N 57°46' E 010°44'1512.9
2016-Jun-30 04:25N 57°47' E 010°17'26814.6
2016-Jun-29 10:05N 54°20' E 005°11'814.5
2016-Jun-29 09:32N 54°13' E 005°05'1414.2
2016-Jun-29 08:33N 54°00' E 004°56'1414.2
2016-Jun-29 07:33N 53°46' E 004°52'4214.0
2016-Jun-29 04:33N 53°07' E 004°28'1814.2
2016-Jun-29 03:17N 52°50' E 004°16'1013.7
2016-Jun-29 02:33N 52°40' E 004°16'1313.0
2016-Jun-29 01:33N 52°29' E 004°28'6 5.7
2016-Jun-29 00:34N 52°28' E 004°37'1 1.2
2016-Jun-28 23:33N 52°28' E 004°39'5 5.1
2016-Jun-28 22:34N 52°25' E 004°46'0 0.0
2016-Jun-28 21:33N 52°25' E 004°46'0 0.0
2016-Jun-28 20:34N 52°25' E 004°46'0 0.0
2016-Jun-28 19:34N 52°25' E 004°46'0 0.0
2016-Jun-28 18:34N 52°25' E 004°46'0 0.0
2016-Jun-28 17:34N 52°25' E 004°46'0 0.0
2016-Jun-28 16:34N 52°25' E 004°46'0 0.0
2016-Jun-28 15:33N 52°25' E 004°46'0 0.0
2016-Jun-28 14:33N 52°25' E 004°46'0 0.0
2016-Jun-28 13:31N 52°25' E 004°46'0 0.0
2016-Jun-28 12:33N 52°25' E 004°46'0 0.0
2016-Jun-28 11:33N 52°25' E 004°46'0 0.0
2016-Jun-28 10:33N 52°25' E 004°46'0 0.0
2016-Jun-28 09:34N 52°25' E 004°46'0 0.0
2016-Jun-28 08:34N 52°25' E 004°46'0 0.0
2016-Jun-28 07:33N 52°25' E 004°46'0 0.0
2016-Jun-28 06:34N 52°25' E 004°46'0 0.0
2016-Jun-28 04:34N 52°25' E 004°46'0 0.0
2016-Jun-28 03:34N 52°25' E 004°46'0 0.0
2016-Jun-28 02:34N 52°25' E 004°46'0 0.0
2016-Jun-28 01:34N 52°25' E 004°46'0 0.0
2016-Jun-28 00:34N 52°25' E 004°46'0 0.0
2016-Jun-27 23:33N 52°25' E 004°46'0 0.0
2016-Jun-27 22:34N 52°25' E 004°46'0 0.0
2016-Jun-27 21:34N 52°25' E 004°46'0 0.0
2016-Jun-27 20:34N 52°25' E 004°46'0 0.0
2016-Jun-27 19:34N 52°25' E 004°46'0 0.0
2016-Jun-27 18:34N 52°25' E 004°46'0 0.0
2016-Jun-27 17:34N 52°25' E 004°46'0 0.0
2016-Jun-27 16:33N 52°25' E 004°46'0 0.0
2016-Jun-27 15:34N 52°25' E 004°46'0 0.0
2016-Jun-27 14:33N 52°25' E 004°46'0 0.0
2016-Jun-27 13:33N 52°25' E 004°46'0 0.0
2016-Jun-27 12:33N 52°25' E 004°46'0 0.0
2016-Jun-27 11:34N 52°25' E 004°46'0 0.0
2016-Jun-27 10:33N 52°25' E 004°46'0 0.0
2016-Jun-27 09:34N 52°25' E 004°46'0 0.0
2016-Jun-27 08:34N 52°25' E 004°46'0 0.0
2016-Jun-26 19:06N 52°25' E 004°46'0 0.0
2016-Jun-26 18:34N 52°25' E 004°46'0 0.0
2016-Jun-26 16:34N 52°25' E 004°46'0 0.0
2016-Jun-26 15:34N 52°25' E 004°46'0 0.0
2016-Jun-26 14:34N 52°25' E 004°46'0 0.0
2016-Jun-26 13:33N 52°25' E 004°46'0 0.0
2016-Jun-26 12:34N 52°25' E 004°46'0 0.0
2016-Jun-26 11:33N 52°25' E 004°46'0 0.0
2016-Jun-26 10:33N 52°25' E 004°46'0 0.0
2016-Jun-26 09:33N 52°25' E 004°46'0 0.0
2016-Jun-26 08:34N 52°25' E 004°46'0 0.0
2016-Jun-26 07:34N 52°25' E 004°46'0 0.0
2016-Jun-26 06:34N 52°25' E 004°46'0 0.0
2016-Jun-26 05:34N 52°25' E 004°46'0 0.0
2016-Jun-26 04:34N 52°25' E 004°46'0 0.0
2016-Jun-26 03:33N 52°25' E 004°46'0 0.0
2016-Jun-26 02:33N 52°25' E 004°46'0 0.0
2016-Jun-26 01:33N 52°25' E 004°46'0 0.0
2016-Jun-26 00:32N 52°25' E 004°46'0 0.0
2016-Jun-25 23:31N 52°25' E 004°46'0 0.0
2016-Jun-25 22:34N 52°25' E 004°46'0 0.0
2016-Jun-25 21:34N 52°25' E 004°46'0 0.0
2016-Jun-25 20:34N 52°25' E 004°46'0 0.0
2016-Jun-25 19:34N 52°25' E 004°46'0 0.0
2016-Jun-25 18:34N 52°25' E 004°46'0 0.0
2016-Jun-25 17:34N 52°25' E 004°46'0 0.0
2016-Jun-25 16:33N 52°25' E 004°46'0 0.0
2016-Jun-25 15:33N 52°25' E 004°46'0 0.0
2016-Jun-25 14:33N 52°25' E 004°46'0 0.0
2016-Jun-25 13:34N 52°25' E 004°46'0 0.0
2016-Jun-25 12:33N 52°25' E 004°46'0 0.0
2016-Jun-25 11:34N 52°25' E 004°46'0 0.0
2016-Jun-25 10:34N 52°25' E 004°46'0 0.0
2016-Jun-25 09:34N 52°25' E 004°46'0 0.0
2016-Jun-25 08:33N 52°25' E 004°46'0 0.0
2016-Jun-25 07:33N 52°25' E 004°46'0 0.0
2016-Jun-25 06:34N 52°25' E 004°46'0 0.0
2016-Jun-25 05:34N 52°25' E 004°46'0 0.0
2016-Jun-25 04:34N 52°25' E 004°46'0 0.0
2016-Jun-25 03:33N 52°25' E 004°46'0 0.0
2016-Jun-25 02:34N 52°25' E 004°46'0 0.0
2016-Jun-25 01:33N 52°25' E 004°46'0 0.0
2016-Jun-25 00:33N 52°25' E 004°46'0 0.0
2016-Jun-24 23:34N 52°25' E 004°46'0 0.0
2016-Jun-24 22:34N 52°25' E 004°46'0 0.0
2016-Jun-24 21:33N 52°25' E 004°46'0 0.0
2016-Jun-24 20:34N 52°25' E 004°46'0 0.0
2016-Jun-24 19:33N 52°25' E 004°46'0 0.0
2016-Jun-24 18:34N 52°25' E 004°46'1 0.8
2016-Jun-24 17:33N 52°25' E 004°45'0 0.0
2016-Jun-24 16:32N 52°25' E 004°45'0 0.0
2016-Jun-24 15:32N 52°25' E 004°45'0 0.0
2016-Jun-24 14:32N 52°25' E 004°45'0 0.0
2016-Jun-24 13:32N 52°25' E 004°45'0 0.0
2016-Jun-24 12:32N 52°25' E 004°45'0 0.0
2016-Jun-24 11:32N 52°25' E 004°45'0 0.0
2016-Jun-24 10:32N 52°25' E 004°45'0 0.0
2016-Jun-24 09:32N 52°25' E 004°45'0 0.0
2016-Jun-24 08:32N 52°25' E 004°45'0 0.0
2016-Jun-24 07:32N 52°25' E 004°45'0 0.0
2016-Jun-24 04:31N 52°25' E 004°45'0 0.0
2016-Jun-24 03:31N 52°25' E 004°45'0 0.0
2016-Jun-24 02:31N 52°25' E 004°45'0 0.0
2016-Jun-24 01:31N 52°25' E 004°45'0 0.0
2016-Jun-24 00:33N 52°25' E 004°45'0 0.0
2016-Jun-23 23:33N 52°25' E 004°45'0 0.0
2016-Jun-23 19:28N 52°25' E 004°45'0 0.0
2016-Jun-23 18:31N 52°25' E 004°45'0 0.0
2016-Jun-23 17:32N 52°25' E 004°45'0 0.0
2016-Jun-23 16:32N 52°25' E 004°45'0 0.0
2016-Jun-23 15:32N 52°25' E 004°45'0 0.0
2016-Jun-23 14:32N 52°25' E 004°45'0 0.0
2016-Jun-23 13:32N 52°25' E 004°45'0 0.0
2016-Jun-23 12:32N 52°25' E 004°45'0 0.0
2016-Jun-23 11:32N 52°25' E 004°45'0 0.0
2016-Jun-23 10:32N 52°25' E 004°45'0 0.0
2016-Jun-23 09:32N 52°25' E 004°45'0 0.0
2016-Jun-23 08:31N 52°25' E 004°45'0 0.0
2016-Jun-23 07:31N 52°25' E 004°45'0 0.0
2016-Jun-23 05:31N 52°25' E 004°45'0 0.0
2016-Jun-23 04:31N 52°25' E 004°45'0 0.0
2016-Jun-23 03:31N 52°25' E 004°45'0 0.0
2016-Jun-23 02:31N 52°25' E 004°45'0 0.0
2016-Jun-23 01:31N 52°25' E 004°45'0 0.0
2016-Jun-23 00:31N 52°25' E 004°45'0 0.0
2016-Jun-22 23:31N 52°25' E 004°45'0 0.0
2016-Jun-22 22:31N 52°25' E 004°45'0 0.0
2016-Jun-22 21:31N 52°25' E 004°45'0 0.0
2016-Jun-22 20:31N 52°25' E 004°45'0 0.0
2016-Jun-22 19:31N 52°25' E 004°45'0 0.0
2016-Jun-22 18:32N 52°25' E 004°45'0 0.0
2016-Jun-22 17:33N 52°25' E 004°45'0 0.0
2016-Jun-22 16:33N 52°25' E 004°45'0 0.0
2016-Jun-22 15:33N 52°25' E 004°45'0 0.0
2016-Jun-22 14:33N 52°25' E 004°45'0 0.0
2016-Jun-22 13:33N 52°25' E 004°45'0 0.0
2016-Jun-22 12:33N 52°25' E 004°45'0 0.0
2016-Jun-22 11:33N 52°25' E 004°45'0 0.0
2016-Jun-22 10:33N 52°25' E 004°45'0 0.0
2016-Jun-22 09:33N 52°25' E 004°45'0 0.0
2016-Jun-22 08:31N 52°25' E 004°45'0 0.0
2016-Jun-22 07:31N 52°25' E 004°45'0 0.0
2016-Jun-22 06:31N 52°25' E 004°45'0 0.0
2016-Jun-22 05:31N 52°25' E 004°45'0 0.0
2016-Jun-22 04:31N 52°25' E 004°45'0 0.0
2016-Jun-22 03:31N 52°25' E 004°45'0 0.0
2016-Jun-22 02:31N 52°25' E 004°45'0 0.0
2016-Jun-22 01:31N 52°25' E 004°45'0 0.0
2016-Jun-22 00:31N 52°25' E 004°45'0 0.0
2016-Jun-21 23:31N 52°25' E 004°45'  
Track history (hours):
 
Tides and Currents Weather Stations Pressure Air Temp Water Temp Dewpoint Dewpoint Depression Visibility Wind Speed Wind Dir Waves Ship Positions

Ivan Papanin

Last reported at 2016-Jul-01 22:34 UTC. Time now 2016-Jul-01 22:38 UTC.
Position N 54°46' E 012°49'.

Length 166 m; beam 22 m.

Type: Cargo ship. MMSI: 273137200.

Date/timePositionNaut miles runAvg speedWind from/ knotsBaromVisibWave heightAir tempDewpointWater temp
2016-Jul-01 22:34N 54°46' E 012°49'1313.4
2016-Jul-01 21:33N 54°38' E 012°29'1313.3
2016-Jul-01 20:33N 54°28' E 012°14'1312.8
2016-Jul-01 19:33N 54°25' E 011°53'1313.2
2016-Jul-01 18:33N 54°29' E 011°32'1313.3
2016-Jul-01 17:33N 54°35' E 011°11'1313.3
2016-Jul-01 16:33N 54°42' E 010°52'1212.1
2016-Jul-01 15:33N 54°54' E 010°53'1211.5
2016-Jul-01 14:33N 55°05' E 011°02'1111.3
2016-Jul-01 13:33N 55°16' E 011°04'12011.6
2016-Jul-01 03:14N 57°15' E 011°33'1014.0
2016-Jul-01 02:33N 57°23' E 011°26'1414.0
2016-Jul-01 01:34N 57°34' E 011°10'1413.7
2016-Jul-01 00:33N 57°40' E 010°47'3 1.4
2016-Jun-30 22:30N 57°41' E 010°42'0 0.0
2016-Jun-30 19:29N 57°41' E 010°42'9 2.8
2016-Jun-30 16:14N 57°32' E 010°42'0 0.0
2016-Jun-30 15:16N 57°32' E 010°42'0 0.0
2016-Jun-30 14:33N 57°32' E 010°42'0 0.0
2016-Jun-30 13:31N 57°32' E 010°42'0 0.0
2016-Jun-30 12:33N 57°32' E 010°42'3 2.5
2016-Jun-30 11:31N 57°32' E 010°47'5 4.7
2016-Jun-30 10:33N 57°33' E 010°55'5 5.4
2016-Jun-30 09:33N 57°37' E 011°03'2 2.2
2016-Jun-30 08:33N 57°35' E 011°02'2 2.4
2016-Jun-30 07:33N 57°32' E 011°00'7 6.7
2016-Jun-30 06:33N 57°39' E 011°01'1211.7
2016-Jun-30 05:33N 57°46' E 010°44'1512.9
2016-Jun-30 04:25N 57°47' E 010°17'26814.6
2016-Jun-29 10:05N 54°20' E 005°11'814.5
2016-Jun-29 09:32N 54°13' E 005°05'1414.2
2016-Jun-29 08:33N 54°00' E 004°56'1414.2
2016-Jun-29 07:33N 53°46' E 004°52'4214.0
2016-Jun-29 04:33N 53°07' E 004°28'1814.2
2016-Jun-29 03:17N 52°50' E 004°16'1013.7
2016-Jun-29 02:33N 52°40' E 004°16'1313.0
2016-Jun-29 01:33N 52°29' E 004°28'6 5.7
2016-Jun-29 00:34N 52°28' E 004°37'1 1.2
2016-Jun-28 23:33N 52°28' E 004°39'5 5.1
2016-Jun-28 22:34N 52°25' E 004°46'0 0.0
2016-Jun-28 21:33N 52°25' E 004°46'0 0.0
2016-Jun-28 20:34N 52°25' E 004°46'0 0.0
2016-Jun-28 19:34N 52°25' E 004°46'0 0.0
2016-Jun-28 18:34N 52°25' E 004°46'0 0.0
2016-Jun-28 17:34N 52°25' E 004°46'0 0.0
2016-Jun-28 16:34N 52°25' E 004°46'0 0.0
2016-Jun-28 15:33N 52°25' E 004°46'0 0.0
2016-Jun-28 14:33N 52°25' E 004°46'0 0.0
2016-Jun-28 13:31N 52°25' E 004°46'0 0.0
2016-Jun-28 12:33N 52°25' E 004°46'0 0.0
2016-Jun-28 11:33N 52°25' E 004°46'0 0.0
2016-Jun-28 10:33N 52°25' E 004°46'0 0.0
2016-Jun-28 09:34N 52°25' E 004°46'0 0.0
2016-Jun-28 08:34N 52°25' E 004°46'0 0.0
2016-Jun-28 07:33N 52°25' E 004°46'0 0.0
2016-Jun-28 06:34N 52°25' E 004°46'0 0.0
2016-Jun-28 04:34N 52°25' E 004°46'0 0.0
2016-Jun-28 03:34N 52°25' E 004°46'0 0.0
2016-Jun-28 02:34N 52°25' E 004°46'0 0.0
2016-Jun-28 01:34N 52°25' E 004°46'0 0.0
2016-Jun-28 00:34N 52°25' E 004°46'0 0.0
2016-Jun-27 23:33N 52°25' E 004°46'0 0.0
2016-Jun-27 22:34N 52°25' E 004°46'0 0.0
2016-Jun-27 21:34N 52°25' E 004°46'0 0.0
2016-Jun-27 20:34N 52°25' E 004°46'0 0.0
2016-Jun-27 19:34N 52°25' E 004°46'0 0.0
2016-Jun-27 18:34N 52°25' E 004°46'0 0.0
2016-Jun-27 17:34N 52°25' E 004°46'0 0.0
2016-Jun-27 16:33N 52°25' E 004°46'0 0.0
2016-Jun-27 15:34N 52°25' E 004°46'0 0.0
2016-Jun-27 14:33N 52°25' E 004°46'0 0.0
2016-Jun-27 13:33N 52°25' E 004°46'0 0.0
2016-Jun-27 12:33N 52°25' E 004°46'0 0.0
2016-Jun-27 11:34N 52°25' E 004°46'0 0.0
2016-Jun-27 10:33N 52°25' E 004°46'0 0.0
2016-Jun-27 09:34N 52°25' E 004°46'0 0.0
2016-Jun-27 08:34N 52°25' E 004°46'0 0.0
2016-Jun-26 19:06N 52°25' E 004°46'0 0.0
2016-Jun-26 18:34N 52°25' E 004°46'0 0.0
2016-Jun-26 16:34N 52°25' E 004°46'0 0.0
2016-Jun-26 15:34N 52°25' E 004°46'0 0.0
2016-Jun-26 14:34N 52°25' E 004°46'0 0.0
2016-Jun-26 13:33N 52°25' E 004°46'0 0.0
2016-Jun-26 12:34N 52°25' E 004°46'0 0.0
2016-Jun-26 11:33N 52°25' E 004°46'0 0.0
2016-Jun-26 10:33N 52°25' E 004°46'0 0.0
2016-Jun-26 09:33N 52°25' E 004°46'0 0.0
2016-Jun-26 08:34N 52°25' E 004°46'0 0.0
2016-Jun-26 07:34N 52°25' E 004°46'0 0.0
2016-Jun-26 06:34N 52°25' E 004°46'0 0.0
2016-Jun-26 05:34N 52°25' E 004°46'0 0.0
2016-Jun-26 04:34N 52°25' E 004°46'0 0.0
2016-Jun-26 03:33N 52°25' E 004°46'0 0.0
2016-Jun-26 02:33N 52°25' E 004°46'0 0.0
2016-Jun-26 01:33N 52°25' E 004°46'0 0.0
2016-Jun-26 00:32N 52°25' E 004°46'0 0.0
2016-Jun-25 23:31N 52°25' E 004°46'0 0.0
2016-Jun-25 22:34N 52°25' E 004°46'0 0.0
2016-Jun-25 21:34N 52°25' E 004°46'0 0.0
2016-Jun-25 20:34N 52°25' E 004°46'0 0.0
2016-Jun-25 19:34N 52°25' E 004°46'0 0.0
2016-Jun-25 18:34N 52°25' E 004°46'0 0.0
2016-Jun-25 17:34N 52°25' E 004°46'0 0.0
2016-Jun-25 16:33N 52°25' E 004°46'0 0.0
2016-Jun-25 15:33N 52°25' E 004°46'0 0.0
2016-Jun-25 14:33N 52°25' E 004°46'0 0.0
2016-Jun-25 13:34N 52°25' E 004°46'0 0.0
2016-Jun-25 12:33N 52°25' E 004°46'0 0.0
2016-Jun-25 11:34N 52°25' E 004°46'0 0.0
2016-Jun-25 10:34N 52°25' E 004°46'0 0.0
2016-Jun-25 09:34N 52°25' E 004°46'0 0.0
2016-Jun-25 08:33N 52°25' E 004°46'0 0.0
2016-Jun-25 07:33N 52°25' E 004°46'0 0.0
2016-Jun-25 06:34N 52°25' E 004°46'0 0.0
2016-Jun-25 05:34N 52°25' E 004°46'0 0.0
2016-Jun-25 04:34N 52°25' E 004°46'0 0.0
2016-Jun-25 03:33N 52°25' E 004°46'0 0.0
2016-Jun-25 02:34N 52°25' E 004°46'0 0.0
2016-Jun-25 01:33N 52°25' E 004°46'0 0.0
2016-Jun-25 00:33N 52°25' E 004°46'0 0.0
2016-Jun-24 23:34N 52°25' E 004°46'0 0.0
2016-Jun-24 22:34N 52°25' E 004°46'0 0.0
2016-Jun-24 21:33N 52°25' E 004°46'0 0.0
2016-Jun-24 20:34N 52°25' E 004°46'0 0.0
2016-Jun-24 19:33N 52°25' E 004°46'0 0.0
2016-Jun-24 18:34N 52°25' E 004°46'1 0.8
2016-Jun-24 17:33N 52°25' E 004°45'0 0.0
2016-Jun-24 16:32N 52°25' E 004°45'0 0.0
2016-Jun-24 15:32N 52°25' E 004°45'0 0.0
2016-Jun-24 14:32N 52°25' E 004°45'0 0.0
2016-Jun-24 13:32N 52°25' E 004°45'0 0.0
2016-Jun-24 12:32N 52°25' E 004°45'0 0.0
2016-Jun-24 11:32N 52°25' E 004°45'0 0.0
2016-Jun-24 10:32N 52°25' E 004°45'0 0.0
2016-Jun-24 09:32N 52°25' E 004°45'0 0.0
2016-Jun-24 08:32N 52°25' E 004°45'0 0.0
2016-Jun-24 07:32N 52°25' E 004°45'0 0.0
2016-Jun-24 04:31N 52°25' E 004°45'0 0.0
2016-Jun-24 03:31N 52°25' E 004°45'0 0.0
2016-Jun-24 02:31N 52°25' E 004°45'0 0.0
2016-Jun-24 01:31N 52°25' E 004°45'0 0.0
2016-Jun-24 00:33N 52°25' E 004°45'0 0.0
2016-Jun-23 23:33N 52°25' E 004°45'0 0.0
2016-Jun-23 19:28N 52°25' E 004°45'0 0.0
2016-Jun-23 18:31N 52°25' E 004°45'0 0.0
2016-Jun-23 17:32N 52°25' E 004°45'0 0.0
2016-Jun-23 16:32N 52°25' E 004°45'0 0.0
2016-Jun-23 15:32N 52°25' E 004°45'0 0.0
2016-Jun-23 14:32N 52°25' E 004°45'0 0.0
2016-Jun-23 13:32N 52°25' E 004°45'0 0.0
2016-Jun-23 12:32N 52°25' E 004°45'0 0.0
2016-Jun-23 11:32N 52°25' E 004°45'0 0.0
2016-Jun-23 10:32N 52°25' E 004°45'0 0.0
2016-Jun-23 09:32N 52°25' E 004°45'0 0.0
2016-Jun-23 08:31N 52°25' E 004°45'0 0.0
2016-Jun-23 07:31N 52°25' E 004°45'0 0.0
2016-Jun-23 05:31N 52°25' E 004°45'0 0.0
2016-Jun-23 04:31N 52°25' E 004°45'0 0.0
2016-Jun-23 03:31N 52°25' E 004°45'0 0.0
2016-Jun-23 02:31N 52°25' E 004°45'0 0.0
2016-Jun-23 01:31N 52°25' E 004°45'0 0.0
2016-Jun-23 00:31N 52°25' E 004°45'0 0.0
2016-Jun-22 23:31N 52°25' E 004°45'0 0.0
2016-Jun-22 22:31N 52°25' E 004°45'0 0.0
2016-Jun-22 21:31N 52°25' E 004°45'0 0.0
2016-Jun-22 20:31N 52°25' E 004°45'0 0.0
2016-Jun-22 19:31N 52°25' E 004°45'0 0.0
2016-Jun-22 18:32N 52°25' E 004°45'0 0.0
2016-Jun-22 17:33N 52°25' E 004°45'0 0.0
2016-Jun-22 16:33N 52°25' E 004°45'0 0.0
2016-Jun-22 15:33N 52°25' E 004°45'0 0.0
2016-Jun-22 14:33N 52°25' E 004°45'0 0.0
2016-Jun-22 13:33N 52°25' E 004°45'0 0.0
2016-Jun-22 12:33N 52°25' E 004°45'0 0.0
2016-Jun-22 11:33N 52°25' E 004°45'0 0.0
2016-Jun-22 10:33N 52°25' E 004°45'0 0.0
2016-Jun-22 09:33N 52°25' E 004°45'0 0.0
2016-Jun-22 08:31N 52°25' E 004°45'0 0.0
2016-Jun-22 07:31N 52°25' E 004°45'0 0.0
2016-Jun-22 06:31N 52°25' E 004°45'0 0.0
2016-Jun-22 05:31N 52°25' E 004°45'0 0.0
2016-Jun-22 04:31N 52°25' E 004°45'0 0.0
2016-Jun-22 03:31N 52°25' E 004°45'0 0.0
2016-Jun-22 02:31N 52°25' E 004°45'0 0.0
2016-Jun-22 01:31N 52°25' E 004°45'0 0.0
2016-Jun-22 00:31N 52°25' E 004°45'0 0.0
2016-Jun-21 23:31N 52°25' E 004°45'  

Dump ship's entire track history